This is the latest recevied weather packets stored in our database for station/object KC8UZG. If no packets are shown the sender has not sent any weather packets the latest 10 day(s).
| Time | Temp. | Humidity | Pressure | Rain* | Wind** | Luminosity | Snow |
|---|---|---|---|---|---|---|---|
| 1777248924 | 16.67° C | 75% | 1016.4 hPa | 0 mm | - | 1 W/m² | - |
| 1777248330 | 16.67° C | 74% | 1016.3 hPa | 0 mm | - | 5 W/m² | - |
| 1777247736 | 16.67° C | 74% | 1016.2 hPa | 0 mm | - | 6 W/m² | - |
| 1777247142 | 17.22° C | 73% | 1016 hPa | 0 mm | - | 9 W/m² | - |
| 1777246521 | 17.78° C | 71% | 1016.1 hPa | 0 mm | - | 20 W/m² | - |
| 1777245927 | 18.33° C | 70% | 1016 hPa | 0 mm | - | 41 W/m² | - |
| 1777245333 | 18.89° C | 70% | 1016 hPa | 0 mm | - | 62 W/m² | - |
| 1777244739 | 18.89° C | 70% | 1016.2 hPa | 0 mm | - | 110 W/m² | - |
| 1777244118 | 18.89° C | 69% | 1016.2 hPa | 0 mm | - | 190 W/m² | - |
| 1777243524 | 18.89° C | 70% | 1016.2 hPa | 0 mm | - | 115 W/m² | - |
| 1777242930 | 18.33° C | 71% | 1016.7 hPa | 0 mm | - | 61 W/m² | - |
| 1777242336 | 18.33° C | 70% | 1016.9 hPa | 0 mm | - | 73 W/m² | - |
| 1777241741 | 18.33° C | 70% | 1017 hPa | 0 mm | - | 136 W/m² | - |
| 1777241121 | 18.33° C | 70% | 1016.7 hPa | 0 mm | - | 164 W/m² | - |
| 1777240527 | 18.89° C | 69% | 1016.7 hPa | 0 mm | - | 104 W/m² | - |
| 1777239933 | 18.89° C | 69% | 1016.7 hPa | 0 mm | - | 123 W/m² | - |
| 1777239339 | 18.89° C | 70% | 1016.4 hPa | 0 mm | - | 195 W/m² | - |
| 1777238718 | 18.89° C | 70% | 1016.4 hPa | 0 mm | - | 216 W/m² | - |
| 1777238124 | 18.89° C | 70% | 1016.4 hPa | 0 mm | - | 86 W/m² | - |
| 1777237531 | 18.89° C | 70% | 1016.4 hPa | 0 mm | - | 182 W/m² | - |
| 1777236936 | 18.89° C | 70% | 1016.4 hPa | 0 mm | - | 236 W/m² | - |
| 1777236341 | 19.44° C | 70% | 1016.4 hPa | 0 mm | - | 287 W/m² | - |
| 1777235721 | 18.33° C | 71% | 1016.7 hPa | 0 mm | - | 280 W/m² | - |
| 1777235127 | 18.33° C | 72% | 1016.8 hPa | 0 mm | - | 247 W/m² | - |
| 1777234533 | 18.33° C | 72% | 1017 hPa | 0 mm | - | 153 W/m² | - |
* Rain latest hour (hover to see other rain measurements)
** Current wind speed in m/s (hover to see current wind gust speed)